TAF KMSY
KMSY 090520Z 0906/1012 08003KT P6SM SCT250 FM091300 11005KT 6SM BR OVC015 FM091500 13006KT P6SM OVC008 FM091800 16007KT P6SM OVC015 FM091900 17008KT P6SM VCSH OVC025 FM100200 18005KT P6SM BKN015=
METAR KMSY
KMSY 090553Z 08004KT 10SM FEW250 14/11 A3006 RMK AO2 SLP182 T01390106 10161 20133 401830133 58002 ?
KMSY 090453Z 08003KT 10SM SCT250 14/11 A3007 RMK AO2 SLP185 T01440106 ?
KMSY 090353Z 06005KT 10SM SCT042 SCT250 16/11 A3007 RMK AO2 SLP184 T01560111 ?
KMSY 090253Z 05004KT 10SM FEW040 FEW250 16/12 A3007 RMK AO2 SLP184 T01560117 51010
SPECI KMSY 090208Z 00000KT 10SM BKN040 BKN250 14/12 A3007 RMK AO2 T01390122
WC KMSY
WS KMSY
WV KMSY